createdAt,value
2019-03-19T00:02:29.210Z,3.70
2019-03-19T00:04:57.916Z,3.90
2019-03-19T00:07:26.331Z,3.90
2019-03-19T00:09:55.044Z,3.90
2019-03-19T00:12:23.485Z,4.00
2019-03-19T00:14:52.185Z,4.00
2019-03-19T00:17:20.872Z,3.90
2019-03-19T00:19:49.311Z,3.80
2019-03-19T00:22:17.751Z,3.80
2019-03-19T00:24:46.196Z,3.90
2019-03-19T00:27:14.628Z,3.90
2019-03-19T00:29:43.340Z,4.00
2019-03-19T00:32:11.755Z,4.00
2019-03-19T00:34:40.279Z,4.00
2019-03-19T00:37:08.975Z,3.90
2019-03-19T00:39:37.676Z,3.70
2019-03-19T00:42:06.112Z,3.60
2019-03-19T00:44:34.825Z,3.60
2019-03-19T00:47:03.512Z,3.60
2019-03-19T00:49:32.227Z,3.70
2019-03-19T00:52:00.919Z,3.70
2019-03-19T00:54:29.370Z,3.80
2019-03-19T00:56:58.068Z,3.80
2019-03-19T00:59:26.523Z,3.60
2019-03-19T01:01:55.268Z,3.40
2019-03-19T01:04:23.959Z,3.40
2019-03-19T01:06:52.457Z,3.50
2019-03-19T01:09:21.147Z,3.60
2019-03-19T01:11:49.578Z,3.70
2019-03-19T01:14:18.268Z,3.70
2019-03-19T01:16:46.966Z,3.70
2019-03-19T01:19:15.683Z,3.50
2019-03-19T01:21:44.103Z,3.30
2019-03-19T01:24:12.791Z,3.20
2019-03-19T01:26:41.484Z,3.10
2019-03-19T01:29:09.920Z,3.20
2019-03-19T01:31:38.363Z,3.20
2019-03-19T01:34:07.073Z,3.20
2019-03-19T01:36:35.760Z,3.10
2019-03-19T01:39:05.589Z,3.20
2019-03-19T01:41:34.027Z,3.20
2019-03-19T01:44:02.543Z,3.10
2019-03-19T01:46:30.994Z,3.10
2019-03-19T01:48:59.421Z,3.10
2019-03-19T01:51:28.125Z,3.00
2019-03-19T01:53:56.795Z,2.90
2019-03-19T01:56:25.252Z,2.90
2019-03-19T01:58:53.679Z,2.90
2019-03-19T02:01:22.371Z,2.90
2019-03-19T02:03:50.805Z,2.80
2019-03-19T02:06:19.259Z,2.70
2019-03-19T02:08:47.698Z,2.70
2019-03-19T02:11:16.397Z,2.70
2019-03-19T02:13:44.908Z,2.80
2019-03-19T02:16:13.354Z,2.90
2019-03-19T02:18:42.044Z,2.90
2019-03-19T02:21:10.752Z,2.90
2019-03-19T02:23:39.188Z,2.90
2019-03-19T02:26:16.000Z,2.70
2019-03-19T02:28:37.876Z,2.60
2019-03-19T02:31:06.323Z,2.60
2019-03-19T02:33:34.759Z,2.60
2019-03-19T02:36:03.532Z,2.70
2019-03-19T02:38:31.959Z,2.70
2019-03-19T02:41:00.399Z,2.60
2019-03-19T02:43:28.821Z,2.60
2019-03-19T02:45:57.266Z,2.50
2019-03-19T02:48:25.708Z,2.60
2019-03-19T02:50:54.223Z,2.70
2019-03-19T02:53:22.916Z,2.70
2019-03-19T02:55:51.637Z,2.70
2019-03-19T02:58:20.453Z,2.70
2019-03-19T03:00:49.165Z,2.60
2019-03-19T03:03:17.848Z,2.50
2019-03-19T03:05:46.554Z,2.50
2019-03-19T03:08:14.981Z,2.50
2019-03-19T03:10:43.494Z,2.50
2019-03-19T03:13:11.929Z,2.40
2019-03-19T03:15:40.628Z,2.30
2019-03-19T03:18:09.335Z,2.20
2019-03-19T03:20:37.796Z,2.20
2019-03-19T03:23:06.319Z,2.30
2019-03-19T03:25:35.079Z,2.40
2019-03-19T03:28:03.607Z,2.50
2019-03-19T03:30:32.112Z,2.50
2019-03-19T03:33:00.613Z,2.40
2019-03-19T03:35:29.303Z,2.50
2019-03-19T03:37:58.004Z,2.40
2019-03-19T03:40:26.789Z,2.30
2019-03-19T03:42:55.219Z,2.30
2019-03-19T03:45:23.912Z,2.20
2019-03-19T03:47:52.368Z,2.20
2019-03-19T03:50:21.136Z,2.20
2019-03-19T03:52:49.655Z,2.20
2019-03-19T03:55:20.092Z,2.20
2019-03-19T03:57:48.677Z,2.20
2019-03-19T04:00:22.163Z,2.30
2019-03-19T04:02:51.020Z,2.30
2019-03-19T04:05:19.631Z,2.30
2019-03-19T04:07:48.349Z,2.30
2019-03-19T04:10:17.756Z,2.30
2019-03-19T04:12:46.213Z,2.30
2019-03-19T04:15:18.225Z,2.30
2019-03-19T04:17:47.061Z,2.20
2019-03-19T04:20:16.605Z,2.10
2019-03-19T04:22:45.055Z,2.00
2019-03-19T04:25:13.741Z,2.00
2019-03-19T04:27:42.180Z,2.00
2019-03-19T04:30:13.704Z,2.00
2019-03-19T04:32:42.211Z,2.00
2019-03-19T04:35:10.785Z,2.00
2019-03-19T04:37:39.380Z,1.90
2019-03-19T04:40:10.241Z,2.00
2019-03-19T04:42:38.703Z,2.00
2019-03-19T04:45:15.088Z,2.00
2019-03-19T04:47:43.884Z,2.10
2019-03-19T04:50:16.187Z,2.20
2019-03-19T04:52:44.914Z,2.20
2019-03-19T04:55:16.829Z,2.10
2019-03-19T04:57:45.664Z,2.00
2019-03-19T05:00:20.619Z,2.10
2019-03-19T05:02:49.321Z,2.10
2019-03-19T05:05:18.029Z,2.10
2019-03-19T05:07:46.534Z,2.00
2019-03-19T05:10:18.372Z,1.90
2019-03-19T05:12:46.943Z,1.80
2019-03-19T05:15:15.451Z,1.80
2019-03-19T05:17:43.964Z,1.80
2019-03-19T05:20:16.252Z,1.80
2019-03-19T05:22:44.948Z,1.80
2019-03-19T05:25:13.449Z,1.80
2019-03-19T05:27:42.132Z,1.80
2019-03-19T05:30:12.928Z,1.90
2019-03-19T05:32:41.638Z,2.00
2019-03-19T05:35:10.516Z,2.00
2019-03-19T05:37:39.305Z,2.00
2019-03-19T05:40:14.526Z,1.90
2019-03-19T05:42:42.963Z,1.90
2019-03-19T05:45:16.470Z,1.90
2019-03-19T05:47:45.199Z,1.80
2019-03-19T05:50:18.240Z,1.70
2019-03-19T05:52:48.430Z,1.70
2019-03-19T05:55:17.083Z,1.70
2019-03-19T05:57:50.010Z,1.80
2019-03-19T06:00:17.385Z,1.90
2019-03-19T06:02:45.884Z,2.00
2019-03-19T06:05:14.315Z,2.00
2019-03-19T06:07:43.002Z,2.00
2019-03-19T06:10:14.611Z,2.00
2019-03-19T06:12:43.199Z,2.10
2019-03-19T06:15:13.843Z,2.10
2019-03-19T06:17:42.556Z,2.20
2019-03-19T06:20:18.142Z,2.30
2019-03-19T06:22:47.081Z,2.30
2019-03-19T06:25:15.841Z,2.30
2019-03-19T06:27:44.347Z,2.30
2019-03-19T06:30:18.690Z,2.30
2019-03-19T06:32:47.224Z,2.30
2019-03-19T06:35:16.190Z,2.40
2019-03-19T06:37:44.699Z,2.60
2019-03-19T06:40:14.760Z,2.80
2019-03-19T06:42:43.488Z,2.90
2019-03-19T06:45:16.626Z,3.00
2019-03-19T06:47:45.059Z,3.10
2019-03-19T06:50:15.386Z,3.30
2019-03-19T06:52:44.179Z,3.40
2019-03-19T06:55:13.812Z,3.70
2019-03-19T06:57:42.245Z,3.90
2019-03-19T07:00:21.743Z,4.00
2019-03-19T07:02:50.188Z,4.20
2019-03-19T07:05:19.893Z,4.50
2019-03-19T07:07:48.879Z,5.10
2019-03-19T07:10:21.153Z,5.70
2019-03-19T07:12:49.656Z,6.00
2019-03-19T07:15:20.252Z,6.20
2019-03-19T07:17:48.948Z,6.50
2019-03-19T07:20:22.223Z,6.90
2019-03-19T07:22:50.928Z,7.30
2019-03-19T07:25:19.362Z,8.00
2019-03-19T07:27:48.052Z,8.60
2019-03-19T07:30:23.190Z,9.30
2019-03-19T07:32:51.631Z,9.90
2019-03-19T07:35:20.333Z,10.00
2019-03-19T07:37:49.162Z,10.00
2019-03-19T07:40:18.459Z,10.10
2019-03-19T07:42:46.928Z,10.00
2019-03-19T07:45:21.348Z,10.10
2019-03-19T07:47:49.795Z,10.10
2019-03-19T07:50:20.577Z,10.20
2019-03-19T07:52:49.009Z,10.40
2019-03-19T07:55:17.447Z,10.70
2019-03-19T07:57:46.055Z,11.10
2019-03-19T08:00:20.049Z,11.30
2019-03-19T08:02:48.471Z,11.60
2019-03-19T08:05:17.311Z,11.80
2019-03-19T08:07:46.120Z,12.20
2019-03-19T08:10:15.700Z,12.60
2019-03-19T08:12:44.524Z,13.00
2019-03-19T08:15:14.108Z,13.40
2019-03-19T08:17:43.150Z,14.10
2019-03-19T08:20:13.920Z,14.70
2019-03-19T08:22:42.715Z,15.30
2019-03-19T08:25:14.867Z,15.60
2019-03-19T08:27:43.324Z,15.80
2019-03-19T08:30:14.849Z,16.30
2019-03-19T08:32:43.271Z,17.10
2019-03-19T08:35:11.738Z,17.70
2019-03-19T08:37:40.236Z,18.50
2019-03-19T08:40:11.580Z,19.30
2019-03-19T08:42:40.019Z,19.60
2019-03-19T08:45:13.879Z,19.80
2019-03-19T08:47:42.323Z,20.30
2019-03-19T08:50:17.691Z,20.50
2019-03-19T08:52:46.193Z,20.80
2019-03-19T08:55:14.704Z,21.20
2019-03-19T08:57:43.523Z,21.20
2019-03-19T09:00:20.671Z,20.90
2019-03-19T09:02:49.144Z,20.50
2019-03-19T09:05:17.896Z,19.90
2019-03-19T09:07:46.391Z,19.20
2019-03-19T09:10:16.845Z,18.10
2019-03-19T09:12:48.025Z,17.20
2019-03-19T09:15:23.487Z,16.50
2019-03-19T09:17:51.927Z,16.10
2019-03-19T09:20:20.646Z,15.80
2019-03-19T09:22:49.340Z,15.70
2019-03-19T09:25:17.915Z,15.70
2019-03-19T09:27:46.411Z,15.70
2019-03-19T09:30:21.372Z,15.60
2019-03-19T09:32:50.068Z,15.40
2019-03-19T09:35:18.511Z,15.40
2019-03-19T09:37:57.699Z,15.30
2019-03-19T09:40:21.145Z,15.20
2019-03-19T09:42:49.642Z,15.10
2019-03-19T09:45:18.931Z,14.90
2019-03-19T09:47:47.684Z,14.70
2019-03-19T09:50:26.726Z,14.60
2019-03-19T09:52:55.145Z,14.50
2019-03-19T09:55:23.579Z,14.30
2019-03-19T09:57:52.011Z,14.40
2019-03-19T10:00:21.198Z,14.30
2019-03-19T10:02:49.639Z,14.30
2019-03-19T10:05:18.395Z,14.30
2019-03-19T10:07:47.182Z,14.40
2019-03-19T10:10:20.881Z,14.40
2019-03-19T10:12:49.651Z,14.50
2019-03-19T10:15:18.590Z,14.50
2019-03-19T10:17:47.091Z,14.50
2019-03-19T10:20:21.833Z,14.50
2019-03-19T10:22:50.524Z,14.20
2019-03-19T10:25:19.228Z,13.90
2019-03-19T10:27:47.757Z,13.60
2019-03-19T10:30:24.136Z,13.60
2019-03-19T10:32:52.888Z,13.70
2019-03-19T10:35:21.336Z,13.70
2019-03-19T10:37:49.759Z,13.60
2019-03-19T10:40:19.443Z,13.30
2019-03-19T10:42:48.128Z,13.10
2019-03-19T10:45:23.806Z,13.20
2019-03-19T10:47:52.652Z,13.20
2019-03-19T10:50:26.064Z,13.30
2019-03-19T10:52:54.767Z,13.30
2019-03-19T10:55:23.620Z,13.30
2019-03-19T10:57:52.076Z,13.30
2019-03-19T11:00:24.412Z,13.20
2019-03-19T11:02:53.545Z,13.10
2019-03-19T11:05:25.238Z,13.20
2019-03-19T11:07:53.671Z,13.40
2019-03-19T11:10:22.487Z,13.40
2019-03-19T11:12:50.920Z,13.50
2019-03-19T11:15:26.657Z,13.70
2019-03-19T11:17:55.442Z,13.80
2019-03-19T11:20:24.143Z,13.90
2019-03-19T11:22:52.713Z,13.80
2019-03-19T11:25:29.999Z,13.90
2019-03-19T11:27:58.435Z,14.10
2019-03-19T11:30:28.416Z,14.00
2019-03-19T11:32:56.851Z,14.00
2019-03-19T11:35:25.439Z,14.00
2019-03-19T11:37:53.927Z,14.00
2019-03-19T11:40:22.451Z,14.10
2019-03-19T11:42:51.542Z,14.00
2019-03-19T11:45:22.003Z,13.70
2019-03-19T11:47:50.599Z,13.60
2019-03-19T11:50:23.156Z,13.60
2019-03-19T11:52:52.394Z,13.70
2019-03-19T11:55:21.263Z,13.50
2019-03-19T11:57:49.721Z,13.40
2019-03-19T12:00:30.534Z,13.40
2019-03-19T12:02:58.992Z,13.50
2019-03-19T12:05:27.421Z,13.60
2019-03-19T12:07:55.871Z,13.80
2019-03-19T12:10:24.308Z,13.90
2019-03-19T12:12:53.020Z,14.10
2019-03-19T12:15:21.709Z,14.10
2019-03-19T12:17:50.412Z,14.10
2019-03-19T12:20:20.803Z,14.20
2019-03-19T12:22:49.582Z,14.30
2019-03-19T12:25:18.065Z,14.30
2019-03-19T12:27:46.798Z,14.30
2019-03-19T12:30:25.978Z,14.30
2019-03-19T12:32:53.193Z,14.30
2019-03-19T12:35:21.879Z,14.30
2019-03-19T12:37:50.678Z,14.20
2019-03-19T12:40:20.318Z,14.10
2019-03-19T12:42:48.770Z,14.00
2019-03-19T12:45:18.665Z,14.00
2019-03-19T12:47:47.392Z,14.20
2019-03-19T12:50:24.119Z,14.30
2019-03-19T12:52:52.638Z,14.30
2019-03-19T12:55:21.236Z,14.30
2019-03-19T12:57:50.033Z,14.10
2019-03-19T13:00:32.894Z,14.20
2019-03-19T13:02:52.891Z,14.20
2019-03-19T13:05:22.662Z,14.20
2019-03-19T13:07:51.454Z,14.30
2019-03-19T13:10:22.480Z,14.40
2019-03-19T13:12:51.243Z,14.50
2019-03-19T13:15:20.478Z,14.60
2019-03-19T13:17:49.454Z,14.50
2019-03-19T13:20:19.047Z,14.30
2019-03-19T13:22:47.543Z,14.20
2019-03-19T13:25:20.652Z,14.10
2019-03-19T13:27:49.099Z,14.20
2019-03-19T13:30:22.451Z,14.30
2019-03-19T13:32:50.969Z,14.30
2019-03-19T13:35:19.646Z,14.20
2019-03-19T13:37:48.344Z,14.30
2019-03-19T13:40:17.616Z,14.30
2019-03-19T13:42:46.311Z,14.50
2019-03-19T13:45:21.539Z,14.50
2019-03-19T13:47:50.251Z,14.50
2019-03-19T13:50:19.613Z,14.40
2019-03-19T13:52:48.156Z,14.20
2019-03-19T13:55:20.270Z,14.30
2019-03-19T13:57:48.769Z,14.40
2019-03-19T14:00:18.130Z,14.40
2019-03-19T14:02:47.140Z,14.50
2019-03-19T14:05:16.316Z,14.60
2019-03-19T14:07:45.110Z,14.60
2019-03-19T14:10:14.788Z,14.50
2019-03-19T14:12:43.302Z,14.60
2019-03-19T14:15:19.716Z,14.60
2019-03-19T14:17:48.231Z,14.70
2019-03-19T14:20:19.834Z,14.70
2019-03-19T14:22:48.312Z,14.50
2019-03-19T14:25:17.203Z,14.50
2019-03-19T14:27:45.794Z,14.40
2019-03-19T14:30:23.899Z,14.40
2019-03-19T14:32:52.609Z,14.30
2019-03-19T14:35:21.300Z,14.30
2019-03-19T14:37:49.760Z,14.30
2019-03-19T14:40:19.420Z,14.20
2019-03-19T14:42:48.141Z,14.10
2019-03-19T14:45:17.392Z,14.00
2019-03-19T14:47:46.232Z,13.80
2019-03-19T14:50:22.356Z,13.80
2019-03-19T14:52:51.074Z,13.60
2019-03-19T14:55:19.577Z,13.60
2019-03-19T14:57:50.757Z,13.60
2019-03-19T15:00:21.775Z,13.60
2019-03-19T15:02:50.449Z,13.70
2019-03-19T15:05:18.879Z,13.80
2019-03-19T15:07:47.319Z,13.80
2019-03-19T15:10:17.859Z,13.70
2019-03-19T15:12:46.330Z,13.50
2019-03-19T15:15:16.763Z,13.40
2019-03-19T15:17:45.649Z,13.30
2019-03-19T15:20:21.232Z,13.30
2019-03-19T15:22:49.747Z,13.30
2019-03-19T15:25:18.431Z,13.00
2019-03-19T15:27:47.359Z,12.90
2019-03-19T15:30:17.811Z,12.90
2019-03-19T15:32:46.396Z,12.90
2019-03-19T15:35:14.908Z,13.00
2019-03-19T15:37:43.618Z,13.10
2019-03-19T15:40:15.770Z,13.10
2019-03-19T15:42:44.358Z,13.10
2019-03-19T15:45:21.024Z,13.10
2019-03-19T15:47:49.478Z,13.10
2019-03-19T15:50:17.911Z,13.00
2019-03-19T15:52:46.617Z,13.00
2019-03-19T15:55:15.672Z,12.90
2019-03-19T15:57:44.253Z,12.80
2019-03-19T16:00:16.624Z,12.80
2019-03-19T16:02:45.136Z,12.80
2019-03-19T16:05:14.118Z,12.70
2019-03-19T16:07:42.803Z,12.70
2019-03-19T16:10:13.337Z,12.60
2019-03-19T16:12:41.794Z,12.60
2019-03-19T16:15:16.215Z,12.60
2019-03-19T16:17:44.747Z,12.50
2019-03-19T16:20:17.141Z,12.50
2019-03-19T16:22:45.673Z,12.40
2019-03-19T16:25:14.334Z,12.30
2019-03-19T16:27:43.119Z,12.20
2019-03-19T16:30:13.948Z,12.10
2019-03-19T16:32:42.483Z,12.10
2019-03-19T16:35:11.963Z,12.10
2019-03-19T16:37:40.472Z,12.10
2019-03-19T16:40:19.256Z,12.00
2019-03-19T16:42:47.767Z,12.00
2019-03-19T16:45:17.948Z,11.90
2019-03-19T16:47:47.009Z,11.90
2019-03-19T16:50:19.352Z,11.90
2019-03-19T16:52:47.950Z,11.80
2019-03-19T16:55:17.596Z,11.80
2019-03-19T16:57:46.295Z,11.80
2019-03-19T17:00:16.652Z,11.70
2019-03-19T17:02:45.133Z,11.60
2019-03-19T17:05:14.656Z,11.60
2019-03-19T17:07:43.452Z,11.50
2019-03-19T17:10:14.636Z,11.50
2019-03-19T17:12:43.148Z,11.40
2019-03-19T17:15:16.197Z,11.40
2019-03-19T17:17:45.152Z,11.40
2019-03-19T17:20:14.439Z,11.20
2019-03-19T17:22:42.883Z,11.20
2019-03-19T17:25:24.802Z,11.20
2019-03-19T17:27:53.288Z,11.20
2019-03-19T17:30:29.512Z,11.20
2019-03-19T17:32:58.295Z,11.10
2019-03-19T17:35:27.702Z,11.00
2019-03-19T17:37:56.148Z,11.00
2019-03-19T17:40:24.890Z,10.90
2019-03-19T17:42:53.411Z,10.90
2019-03-19T17:45:21.882Z,10.80
2019-03-19T17:47:50.339Z,10.60
2019-03-19T17:50:27.591Z,10.50
2019-03-19T17:52:56.582Z,10.40
2019-03-19T17:55:25.096Z,10.40
2019-03-19T17:57:53.552Z,10.30
2019-03-19T18:00:23.711Z,10.30
2019-03-19T18:02:52.212Z,10.20
2019-03-19T18:05:20.993Z,10.10
2019-03-19T18:07:49.518Z,10.10
2019-03-19T18:10:17.974Z,10.10
2019-03-19T18:12:46.395Z,10.00
2019-03-19T18:15:19.275Z,9.80
2019-03-19T18:17:47.711Z,9.60
2019-03-19T18:20:19.203Z,9.60
2019-03-19T18:22:47.643Z,9.60
2019-03-19T18:25:20.026Z,9.50
2019-03-19T18:27:48.860Z,9.50
2019-03-19T18:30:21.982Z,9.40
2019-03-19T18:32:50.568Z,9.30
2019-03-19T18:35:19.011Z,9.20
2019-03-19T18:37:47.706Z,9.10
2019-03-19T18:40:19.403Z,9.10
2019-03-19T18:42:47.903Z,9.10
2019-03-19T18:45:19.928Z,9.10
2019-03-19T18:47:48.633Z,9.00
2019-03-19T18:50:21.130Z,8.90
2019-03-19T18:52:49.688Z,8.90
2019-03-19T18:55:18.610Z,8.70
2019-03-19T18:57:47.105Z,8.70
2019-03-19T19:00:20.754Z,8.60
2019-03-19T19:02:50.792Z,8.50
2019-03-19T19:05:20.768Z,8.50
2019-03-19T19:07:49.736Z,8.50
2019-03-19T19:10:21.059Z,8.40
2019-03-19T19:12:49.266Z,8.40
2019-03-19T19:15:23.341Z,8.40
2019-03-19T19:17:51.785Z,8.30
2019-03-19T19:20:20.529Z,8.20
2019-03-19T19:22:49.095Z,8.20
2019-03-19T19:25:25.674Z,8.10
2019-03-19T19:27:54.371Z,8.00
2019-03-19T19:30:25.210Z,7.90
2019-03-19T19:33:01.548Z,7.90
2019-03-19T19:35:23.822Z,7.80
2019-03-19T19:37:52.250Z,7.80
2019-03-19T19:40:20.951Z,7.80
2019-03-19T19:42:49.531Z,7.70
2019-03-19T19:45:19.095Z,7.60
2019-03-19T19:47:47.884Z,7.50
2019-03-19T19:50:18.416Z,7.50
2019-03-19T19:52:47.188Z,7.50
2019-03-19T19:55:15.879Z,7.40
2019-03-19T19:57:44.489Z,7.40
2019-03-19T20:00:22.642Z,7.30
2019-03-19T20:02:51.156Z,7.30
2019-03-19T20:05:19.955Z,7.30
2019-03-19T20:07:48.462Z,7.20
2019-03-19T20:10:24.875Z,7.20
2019-03-19T20:12:53.299Z,7.30
2019-03-19T20:15:22.090Z,7.30
2019-03-19T20:17:50.860Z,7.30
2019-03-19T20:20:24.885Z,7.40
2019-03-19T20:22:53.575Z,7.40
2019-03-19T20:25:22.123Z,7.40
2019-03-19T20:27:50.870Z,7.30
2019-03-19T20:30:20.541Z,7.20
2019-03-19T20:32:48.959Z,7.30
2019-03-19T20:35:17.422Z,7.30
2019-03-19T20:37:46.224Z,7.30
2019-03-19T20:40:15.825Z,7.20
2019-03-19T20:42:44.275Z,7.20
2019-03-19T20:45:13.953Z,7.20
2019-03-19T20:47:42.459Z,7.10
2019-03-19T20:50:13.832Z,7.10
2019-03-19T20:52:43.415Z,7.10
2019-03-19T20:55:11.967Z,7.10
2019-03-19T20:57:40.471Z,7.10
2019-03-19T21:00:16.224Z,7.00
2019-03-19T21:02:44.919Z,7.00
2019-03-19T21:05:13.447Z,7.10
2019-03-19T21:07:42.176Z,7.10
2019-03-19T21:10:16.579Z,7.10
2019-03-19T21:12:45.507Z,7.20
2019-03-19T21:15:24.247Z,7.10
2019-03-19T21:17:52.781Z,7.10
2019-03-19T21:20:21.406Z,7.10
2019-03-19T21:22:49.841Z,6.90
2019-03-19T21:25:18.427Z,6.90
2019-03-19T21:27:47.211Z,6.90
2019-03-19T21:30:22.091Z,7.00
2019-03-19T21:32:50.596Z,6.90
2019-03-19T21:35:24.647Z,6.80
2019-03-19T21:37:53.220Z,6.70
2019-03-19T21:40:21.952Z,6.60
2019-03-19T21:42:50.395Z,6.60
2019-03-19T21:45:20.050Z,6.50
2019-03-19T21:47:48.646Z,6.40
2019-03-19T21:50:23.292Z,6.40
2019-03-19T21:52:51.787Z,6.40
2019-03-19T21:55:20.483Z,6.30
2019-03-19T21:57:49.284Z,6.20
2019-03-19T22:00:18.960Z,6.20
2019-03-19T22:02:47.482Z,6.20
2019-03-19T22:05:16.237Z,6.10
2019-03-19T22:07:45.077Z,6.00
2019-03-19T22:10:20.439Z,6.00
2019-03-19T22:12:49.561Z,6.00
2019-03-19T22:15:25.228Z,6.00
2019-03-19T22:17:53.743Z,6.00
2019-03-19T22:20:22.459Z,5.90
2019-03-19T22:22:51.295Z,5.80
2019-03-19T22:25:19.717Z,5.80
2019-03-19T22:27:48.170Z,5.70
2019-03-19T22:30:20.347Z,5.70
2019-03-19T22:32:48.805Z,5.70
2019-03-19T22:35:17.589Z,5.70
2019-03-19T22:37:46.292Z,5.70
2019-03-19T22:40:18.764Z,5.70
2019-03-19T22:42:47.576Z,5.50
2019-03-19T22:45:18.243Z,5.70
2019-03-19T22:47:47.153Z,5.80
2019-03-19T22:50:17.790Z,5.80
2019-03-19T22:52:46.548Z,5.80
2019-03-19T22:55:15.511Z,5.70
2019-03-19T22:57:44.281Z,5.60
2019-03-19T23:00:33.641Z,5.60
2019-03-19T23:03:02.083Z,5.60
2019-03-19T23:05:30.775Z,5.50
2019-03-19T23:07:59.392Z,5.40
2019-03-19T23:10:27.989Z,5.40
2019-03-19T23:12:56.571Z,5.30
2019-03-19T23:15:25.456Z,5.30
2019-03-19T23:17:53.975Z,5.20
2019-03-19T23:20:22.803Z,5.10
2019-03-19T23:22:51.264Z,5.10
2019-03-19T23:25:19.707Z,5.10
2019-03-19T23:27:48.164Z,5.10
2019-03-19T23:30:18.910Z,5.10
2019-03-19T23:32:47.352Z,5.20
2019-03-19T23:35:15.790Z,5.10
2019-03-19T23:37:44.508Z,5.10
2019-03-19T23:40:14.853Z,5.10
2019-03-19T23:42:43.659Z,5.10
2019-03-19T23:45:13.041Z,5.10
2019-03-19T23:47:41.483Z,5.10
2019-03-19T23:50:18.086Z,5.10
2019-03-19T23:52:46.784Z,5.00
2019-03-19T23:55:15.290Z,4.90
2019-03-19T23:57:43.731Z,4.90
